• Join FlightAware (Why Join?)
  • Login
  • US Flag 
05:32AM EDT


 

Airport Tracker/Info


-or-


 

Live Flight TrackerFlight Track Log ✈ EJA829P ✈ 07-Jul-2013 ✈ KSSI - KFDY

Flight Track Log - Related Links

Times and Time Zones

All times are in EDT time to prevent confusion due to time zone crossing. See the EJA829P flight status page for this flight to view local times or setup timezone preferences in your user account.

Time Position Orientation Groundspeed Altitude Reporting Facility
EDT Latitude Longitude Course Direction KTS MPH feet Rate Location/Type
05:40PM 31.1353 -81.4461 10° North 410 472 2,500  Level Jacksonville Center
05:41PM 31.2128 -81.4642 349° North 309 356 5,800 3,120 Climbing Jacksonville Center
05:42PM 31.2919 -81.4486 10° North 273 314 8,800 2,700 Climbing Jacksonville Center
05:43PM 31.8051 -81.2490 10° North  Level FlightAware Approximate
05:43PM 31.3775 -81.4544 357° North 285 328 11,300  Level Jacksonville Center
05:44PM 31.4611 -81.4678 352° North 321 369 13,100 1,980 Climbing Jacksonville Center
05:45PM 31.5700 -81.4808 354° North 352 405 15,300 2,040 Climbing Jacksonville Center
05:46PM 31.6661 -81.4939 353° North 352 405 17,200 1,800 Climbing Jacksonville Center
05:47PM 31.7561 -81.5047 354° North 352 405 18,900 1,920 Climbing Jacksonville Center
05:48PM 31.8625 -81.5203 353° North 352 405 21,100 1,860 Climbing Jacksonville Center
05:49PM 31.9547 -81.5311 354° North 358 412 22,700 1,380 Climbing Jacksonville Center
05:50PM 32.0569 -81.5444 354° North 369 425 24,000 1,440 Climbing Jacksonville Center
05:51PM 32.1719 -81.5597 354° North 380 437 25,600 1,380 Climbing Jacksonville Center
05:52PM 32.2683 -81.5708 354° North 380 437 26,800 1,200 Climbing Jacksonville Center
05:53PM 32.3853 -81.5861 354° North 385 443 28,000 1,080 Climbing Jacksonville Center
05:54PM 32.4939 -81.6019 353° North 391 450 29,000 960 Climbing Jacksonville Center
05:55PM 32.5900 -81.6128 355° North 390 449 30,000 1,320 Climbing Jacksonville Center
05:56PM 32.7092 -81.6261 355° North 390 449 31,700 1,500 Climbing Jacksonville Center
05:57PM 32.8139 -81.6394 354° North 384 442 33,000 1,080 Climbing Jacksonville Center
05:58PM 32.9203 -81.6528 354° North 384 442 33,900 480 Climbing Jacksonville Center
05:59PM 33.0289 -81.6389 North 384 442 34,000  Climbing Jacksonville Center
06:00PM 33.1431 -81.5975 17° North 391 450 34,000  Level Jacksonville Center
06:01PM 33.2453 -81.5811 North 406 467 34,000  Level Jacksonville Center
06:02PM 33.3683 -81.5769 North 421 484 34,000  Level Jacksonville Center
06:03PM 33.4833 -81.6000 351° North 421 484 34,000 60 Level Jacksonville Center
06:04PM 33.5986 -81.6433 343° North 421 484 34,200 960 Climbing Jacksonville Center
06:05PM 33.7094 -81.6742 347° North 415 478 36,000 900 Climbing Jacksonville Center
06:06PM 33.8222 -81.6925 352° North 408 470 36,000 240 Level Jacksonville Center
06:07PM 33.9478 -81.7158 351° North 414 476 36,500 600 Climbing Jacksonville Center
06:09PM 34.1889 -81.7811 347° North 408 470 38,000 420 Climbing Atlanta Center
06:10PM 34.3064 -81.8158 346° North 414 476 38,000  Level Atlanta Center
06:11PM 34.4197 -81.8481 347° North 414 476 38,000  Level Atlanta Center
06:12PM 34.5389 -81.8625 354° North 420 483 38,000  Level Atlanta Center
06:13PM 34.6578 -81.8644 359° North 420 483 38,000  Level Atlanta Center
06:14PM 34.7792 -81.8842 352° North 432 497 38,000  Level Atlanta Center
06:15PM 34.9006 -81.9039 352° North 432 497 38,000  Level Atlanta Center
06:16PM 35.0200 -81.9286 350° North 432 497 38,000  Level Atlanta Center
06:17PM 35.1478 -81.9636 347° North 432 497 38,000  Level Atlanta Center
06:18PM 35.2653 -81.9961 347° North 432 497 38,000  Level Atlanta Center
06:19PM 35.3806 -82.0289 347° North 432 497 38,000  Level Atlanta Center
06:20PM 35.4978 -82.0617 347° North 432 497 38,000  Level Atlanta Center
06:21PM 35.6131 -82.0947 347° North 432 497 38,000  Level Atlanta Center
06:22PM 35.7306 -82.1278 347° North 425 489 38,000  Level Atlanta Center
06:23PM 35.8353 -82.1536 349° North 425 489 38,000  Level Atlanta Center
06:24PM 35.9506 -82.1867 347° North 425 489 38,000  Level Atlanta Center
06:25PM 36.0678 -82.2200 347° North 425 489 38,000  Level Atlanta Center
06:26PM 36.1786 -82.2483 348° North 418 481 38,000  Level Atlanta Center
06:28PM 36.4494 -82.3269 347° North 428 493 38,000  Level Indianapolis Center
06:29PM 36.5661 -82.3614 347° North 431 496 38,000  Level Indianapolis Center
06:30PM 36.6833 -82.3936 348° North 433 498 38,000  Level Indianapolis Center
06:31PM 36.8014 -82.4264 347° North 435 501 38,000  Level Indianapolis Center
06:32PM 36.9381 -82.4667 347° North 435 501 38,000  Level Indianapolis Center
06:33PM 37.0550 -82.5006 347° North 434 499 38,000  Level Indianapolis Center
06:35PM 37.1725 -82.5361 346° North 436 502 38,000  Level Indianapolis Center
06:36PM 37.2914 -82.5708 347° North 440 506 38,000  Level Indianapolis Center
06:37PM 37.4106 -82.6075 346° North 442 509 38,000  Level Indianapolis Center
06:38PM 37.5308 -82.6431 347° North 444 511 38,000  Level Indianapolis Center
06:39PM 37.6714 -82.6856 347° North 445 512 38,000  Level Indianapolis Center
06:40PM 37.7925 -82.7211 347° North 447 514 38,000  Level Indianapolis Center
06:41PM 37.9136 -82.7569 347° North 447 514 38,000  Level Indianapolis Center
06:42PM 38.0367 -82.7933 347° North 452 520 38,000  Level Indianapolis Center
06:43PM 38.1597 -82.8325 346° North 454 522 38,000  Level Indianapolis Center
06:44PM 38.2814 -82.8675 347° North 448 516 38,000  Level Indianapolis Center
06:45PM 38.4225 -82.9103 347° North 446 513 38,000  Level Indianapolis Center
06:46PM 38.5419 -82.9461 347° North 440 506 38,000  Level Indianapolis Center
06:47PM 38.6481 -82.9797 346° North 445 512 38,000  Level Indianapolis Center
06:48PM 38.7914 -83.0267 346° North 442 509 38,000  Level Indianapolis Center
06:49PM 38.9106 -83.0650 346° North 438 504 38,000 -240 Level Indianapolis Center
06:50PM 39.0272 -83.1044 345° North 434 499 37,600 -1,320 Descending Indianapolis Center
06:51PM 39.1469 -83.1431 346° North 440 506 35,400 -2,100 Descending Indianapolis Center
06:52PM 39.2678 -83.1833 346° North 438 504 33,300 -2,040 Descending Indianapolis Center
06:53PM 39.3847 -83.2217 346° North 432 497 31,300 -1,980 Descending Indianapolis Center
06:54PM 39.5003 -83.2603 346° North 426 490 29,300 -1,980 Descending Indianapolis Center
06:55PM 39.6172 -83.2994 346° North 430 495 27,300 -2,040 Descending Indianapolis Center
06:56PM 39.7317 -83.3375 346° North 426 490 25,200 -1,620 Descending Indianapolis Center
06:57PM 39.8578 -83.3775 346° North 406 467 24,000 -660 Descending Indianapolis Center
06:58PM 39.9661 -83.3772 360° North 405 466 23,900 -1,080 Descending Indianapolis Center
06:59PM 40.0764 -83.3400 14° North 407 468 21,800 -1,920 Descending Indianapolis Center
07:00PM 40.1686 -83.3861 339° North 386 444 20,000 -1,200 Descending Indianapolis Center
07:01PM 40.2111 -83.5039 295° West 361 415 19,400 -1,320 Descending Indianapolis Center
07:02PM 40.2400 -83.6342 286° West 367 422 17,300 -2,160 Descending Indianapolis Center
07:03PM 40.2914 -83.7656 297° West 348 400 15,000 -2,100 Descending Indianapolis Center
07:04PM 40.3456 -83.8653 305° West 333 383 13,000 -1,920 Descending Indianapolis Center
07:05PM 40.4181 -83.9356 324° Northwest 322 371 11,100 -1,260 Descending Indianapolis Center
07:06PM 40.5028 -83.9522 351° North 306 352 10,400 -1,380 Descending Indianapolis Center
07:07PM 40.5794 -83.9564 358° North 278 320 8,300 -2,040 Descending Indianapolis Center
07:08PM 40.6556 -83.9408 North 272 313 6,300 -1,980 Descending Indianapolis Center
07:10PM 40.7303 -83.9106 17° North 276 318 4,300 -1,320 Descending Indianapolis Center
07:11PM 40.8161 -83.8811 15° North 278 320 3,600 -720 Descending Indianapolis Center